createdAt,value
2022-09-15T00:01:21.984Z,99647.34
2022-09-15T00:03:50.951Z,99643.84
2022-09-15T00:06:21.210Z,99643.03
2022-09-15T00:08:49.576Z,99637.72
2022-09-15T00:11:20.066Z,99639.34
2022-09-15T00:13:48.573Z,99636.69
2022-09-15T00:16:18.274Z,99646.72
2022-09-15T00:18:47.896Z,99639.53
2022-09-15T00:21:18.180Z,99628.69
2022-09-15T00:23:48.896Z,99634.03
2022-09-15T00:26:19.339Z,99632.38
2022-09-15T00:28:48.095Z,99629.06
2022-09-15T00:31:18.828Z,99631.34
2022-09-15T00:33:48.727Z,99628.88
2022-09-15T00:36:18.164Z,99627.84
2022-09-15T00:38:48.039Z,99627.22
2022-09-15T00:41:20.689Z,99629.72
2022-09-15T00:43:53.099Z,99621.72
2022-09-15T00:46:23.813Z,99630.50
2022-09-15T00:48:59.348Z,99619.84
2022-09-15T00:51:35.222Z,99628.50
2022-09-15T00:54:12.367Z,99634.84
2022-09-15T00:56:44.743Z,99636.06
2022-09-15T00:59:17.676Z,99636.69
2022-09-15T01:01:48.360Z,99639.34
2022-09-15T01:04:17.944Z,99637.06
2022-09-15T01:06:49.243Z,99628.06
2022-09-15T01:09:23.723Z,99629.06
2022-09-15T01:11:52.414Z,99624.38
2022-09-15T01:14:20.896Z,99619.03
2022-09-15T01:20:15.115Z,99618.00
2022-09-15T01:23:01.329Z,99620.06
2022-09-15T01:25:50.355Z,99611.03
2022-09-15T01:28:48.303Z,99611.03
2022-09-15T01:31:24.708Z,99617.38
2022-09-15T01:33:58.527Z,99614.72
2022-09-15T01:36:33.895Z,99606.50
2022-09-15T01:39:09.105Z,99600.38
2022-09-15T01:41:43.163Z,99604.06
2022-09-15T01:44:16.489Z,99602.00
2022-09-15T01:46:49.426Z,99600.38
2022-09-15T01:49:21.941Z,99598.91
2022-09-15T01:51:53.782Z,99595.03
2022-09-15T01:54:26.366Z,99592.97
2022-09-15T01:56:54.628Z,99598.72
2022-09-15T01:59:23.073Z,99587.22
2022-09-15T02:01:59.239Z,99584.19
2022-09-15T02:04:31.173Z,99582.72
2022-09-15T02:07:07.235Z,99579.22
2022-09-15T02:09:39.617Z,99580.03
2022-09-15T02:12:14.338Z,99575.72
2022-09-15T02:14:51.008Z,99579.03
2022-09-15T02:17:22.548Z,99574.72
2022-09-15T02:19:53.928Z,99565.69
2022-09-15T02:22:28.052Z,99569.16
2022-09-15T02:25:02.321Z,99568.34
2022-09-15T02:27:34.168Z,99563.81
2022-09-15T02:30:07.993Z,99571.03
2022-09-15T02:32:41.351Z,99567.69
2022-09-15T02:35:11.295Z,99569.16
2022-09-15T02:37:40.123Z,99570.19
2022-09-15T02:40:09.457Z,99562.38
2022-09-15T02:42:37.583Z,99566.06
2022-09-15T02:45:06.692Z,99569.56
2022-09-15T02:47:35.031Z,99564.66
2022-09-15T02:50:05.069Z,99566.91
2022-09-15T02:52:33.402Z,99558.72
2022-09-15T02:55:01.798Z,99562.84
2022-09-15T02:57:30.104Z,99560.97
2022-09-15T03:00:23.932Z,99554.00
2022-09-15T03:02:54.658Z,99558.50
2022-09-15T03:05:25.880Z,99560.16
2022-09-15T03:07:54.614Z,99554.38
2022-09-15T03:10:24.383Z,99558.72
2022-09-15T03:12:54.583Z,99562.19
2022-09-15T03:15:24.532Z,99562.00
2022-09-15T03:17:53.073Z,99562.19
2022-09-15T03:20:23.709Z,99557.69
2022-09-15T03:22:53.452Z,99560.16
2022-09-15T03:25:23.670Z,99558.31
2022-09-15T03:27:54.142Z,99564.16
2022-09-15T03:30:22.454Z,99555.63
2022-09-15T03:32:50.873Z,99555.63
2022-09-15T03:35:19.305Z,99560.59
2022-09-15T03:37:47.632Z,99563.28
2022-09-15T03:40:17.623Z,99560.59
2022-09-15T03:42:46.008Z,99567.66
2022-09-15T03:45:14.283Z,99558.97
2022-09-15T03:47:42.778Z,99557.34
2022-09-15T03:50:11.268Z,99556.88
2022-09-15T03:52:39.658Z,99554.59
2022-09-15T03:55:08.709Z,99554.50
2022-09-15T03:57:38.326Z,99560.47
2022-09-15T04:00:08.724Z,99553.94
2022-09-15T04:02:36.945Z,99544.66
2022-09-15T04:05:05.957Z,99552.47
2022-09-15T04:07:34.639Z,99561.28
2022-09-15T04:10:04.798Z,99556.25
2022-09-15T04:12:33.420Z,99550.06
2022-09-15T04:15:04.168Z,99547.22
2022-09-15T04:17:32.580Z,99543.75
2022-09-15T04:20:01.089Z,99549.69
2022-09-15T04:22:32.247Z,99557.53
2022-09-15T04:25:00.598Z,99552.19
2022-09-15T04:27:29.216Z,99561.56
2022-09-15T04:29:57.682Z,99558.72
2022-09-15T04:32:27.539Z,99559.53
2022-09-15T04:34:55.918Z,99556.25
2022-09-15T04:37:24.260Z,99560.31
2022-09-15T04:39:52.696Z,99549.63
2022-09-15T04:42:21.963Z,99552.91
2022-09-15T04:44:50.224Z,99547.22
2022-09-15T04:47:19.694Z,99539.50
2022-09-15T04:49:49.087Z,99536.66
2022-09-15T04:52:17.155Z,99528.47
2022-09-15T04:54:46.043Z,99535.44
2022-09-15T04:57:14.372Z,99523.88
2022-09-15T04:59:42.750Z,99524.88
2022-09-15T05:02:11.206Z,99521.56
2022-09-15T05:04:39.525Z,99520.19
2022-09-15T05:07:09.477Z,99520.47
2022-09-15T05:09:38.434Z,99532.22
2022-09-15T05:12:07.482Z,99527.88
2022-09-15T05:14:35.808Z,99537.56
2022-09-15T05:17:04.428Z,99539.19
2022-09-15T05:19:32.950Z,99535.44
2022-09-15T05:22:01.340Z,99539.94
2022-09-15T05:24:30.947Z,99541.97
2022-09-15T05:26:59.267Z,99553.56
2022-09-15T05:29:27.534Z,99550.59
2022-09-15T05:31:55.932Z,99552.19
2022-09-15T05:34:24.301Z,99544.38
2022-09-15T05:36:52.577Z,99553.03
2022-09-15T05:39:20.964Z,99555.88
2022-09-15T05:41:50.750Z,99553.03
2022-09-15T05:44:21.484Z,99551.44
2022-09-15T05:46:50.076Z,99549.03
2022-09-15T05:49:18.405Z,99543.69
2022-09-15T05:51:46.835Z,99536.16
2022-09-15T05:54:15.131Z,99535.13
2022-09-15T05:56:43.572Z,99535.97
2022-09-15T05:59:13.233Z,99531.19
2022-09-15T06:01:41.718Z,99526.22
2022-09-15T06:04:10.230Z,99532.38
2022-09-15T06:06:38.477Z,99530.53
2022-09-15T06:09:07.493Z,99530.38
2022-09-15T06:11:35.954Z,99534.13
2022-09-15T06:14:06.140Z,99527.94
2022-09-15T06:16:37.105Z,99530.41
2022-09-15T06:19:05.788Z,99516.09
2022-09-15T06:21:34.952Z,99525.91
2022-09-15T06:24:06.459Z,99519.75
2022-09-15T06:26:35.334Z,99520.78
2022-09-15T06:29:05.232Z,99518.09
2022-09-15T06:31:36.942Z,99518.09
2022-09-15T06:34:05.650Z,99517.72
2022-09-15T06:36:34.277Z,99523.06
2022-09-15T06:39:03.068Z,99523.06
2022-09-15T06:41:47.395Z,99521.84
2022-09-15T06:44:19.786Z,99520.03
2022-09-15T06:46:50.108Z,99524.34
2022-09-15T06:49:18.739Z,99516.31
2022-09-15T06:51:47.098Z,99521.84
2022-09-15T06:54:16.864Z,99514.03
2022-09-15T06:56:45.809Z,99516.50
2022-09-15T06:59:14.757Z,99506.50
2022-09-15T07:01:44.014Z,99502.97
2022-09-15T07:04:13.634Z,99507.47
2022-09-15T07:06:42.026Z,99505.47
2022-09-15T07:09:12.697Z,99502.97
2022-09-15T07:11:41.124Z,99510.06
2022-09-15T07:14:09.513Z,99512.25
2022-09-15T07:16:37.943Z,99529.28
2022-09-15T07:19:06.332Z,99525.97
2022-09-15T07:21:36.077Z,99533.78
2022-09-15T07:24:07.241Z,99529.28
2022-09-15T07:26:36.414Z,99530.50
2022-09-15T07:29:07.083Z,99533.00
2022-09-15T07:31:38.321Z,99528.47
2022-09-15T07:34:07.621Z,99525.97
2022-09-15T07:36:37.606Z,99523.97
2022-09-15T07:39:06.839Z,99527.66
2022-09-15T07:41:35.587Z,99521.09
2022-09-15T07:44:04.188Z,99526.44
2022-09-15T07:46:34.300Z,99531.59
2022-09-15T07:49:03.426Z,99521.72
2022-09-15T07:51:32.318Z,99521.53
2022-09-15T07:54:02.122Z,99524.38
2022-09-15T07:56:30.551Z,99521.53
2022-09-15T07:58:59.034Z,99526.88
2022-09-15T08:01:27.775Z,99521.53
2022-09-15T08:03:56.284Z,99508.19
2022-09-15T08:06:27.089Z,99514.56
2022-09-15T08:09:00.473Z,99514.56
2022-09-15T08:11:30.857Z,99510.06
2022-09-15T08:14:03.445Z,99508.38
2022-09-15T08:16:32.256Z,99508.19
2022-09-15T08:19:00.728Z,99512.72
2022-09-15T08:21:29.553Z,99494.03
2022-09-15T08:23:59.587Z,99495.88
2022-09-15T08:26:29.299Z,99491.56
2022-09-15T08:28:59.474Z,99490.53
2022-09-15T08:31:27.769Z,99487.03
2022-09-15T08:33:57.326Z,99470.22
2022-09-15T08:36:27.909Z,99476.75
2022-09-15T08:38:57.033Z,99478.84
2022-09-15T08:41:28.862Z,99470.59
2022-09-15T08:44:04.151Z,99471.44
2022-09-15T08:46:38.426Z,99472.22
2022-09-15T08:49:12.234Z,99459.16
2022-09-15T08:51:46.423Z,99454.44
2022-09-15T08:54:20.494Z,99461.19
2022-09-15T08:56:49.966Z,99450.53
2022-09-15T08:59:20.412Z,99438.19
2022-09-15T09:02:19.340Z,99436.09
2022-09-15T09:05:16.619Z,99427.50
2022-09-15T09:08:20.010Z,99430.38
2022-09-15T09:10:53.981Z,99434.69
2022-09-15T09:13:35.449Z,99431.19
2022-09-15T09:16:21.007Z,99431.44
2022-09-15T09:19:18.327Z,99435.31
2022-09-15T09:21:51.500Z,99434.16
2022-09-15T09:24:28.138Z,99432.31
2022-09-15T09:26:57.207Z,99423.25
2022-09-15T09:29:31.536Z,99417.22
2022-09-15T09:32:03.563Z,99414.28
2022-09-15T09:34:42.023Z,99408.13
2022-09-15T09:37:12.525Z,99406.09
2022-09-15T09:39:41.289Z,99402.81
2022-09-15T09:42:15.293Z,99399.47
2022-09-15T09:44:43.930Z,99392.13
2022-09-15T09:47:15.538Z,99386.59
2022-09-15T09:49:48.218Z,99381.25
2022-09-15T09:52:34.654Z,99384.31
2022-09-15T09:55:04.454Z,99377.94
2022-09-15T09:57:33.097Z,99378.41
2022-09-15T10:00:01.433Z,99365.88
2022-09-15T10:02:48.594Z,99360.53
2022-09-15T10:05:21.250Z,99363.84
2022-09-15T10:07:49.906Z,99359.53
2022-09-15T10:10:23.491Z,99362.19
2022-09-15T10:12:56.597Z,99352.53
2022-09-15T10:15:27.661Z,99361.38
2022-09-15T10:17:58.320Z,99359.53
2022-09-15T10:20:32.846Z,99351.53
2022-09-15T10:23:07.817Z,99356.03
2022-09-15T10:28:28.677Z,99359.34
2022-09-15T10:31:03.155Z,99351.53
2022-09-15T10:33:35.189Z,99354.81
2022-09-15T10:36:07.587Z,99347.19
2022-09-15T10:38:45.146Z,99347.00
2022-09-15T10:41:27.219Z,99346.19
2022-09-15T10:44:27.749Z,99349.25
2022-09-15T10:47:04.465Z,99338.81
2022-09-15T10:49:49.640Z,99326.28
2022-09-15T10:52:31.248Z,99320.50
2022-09-15T10:55:14.948Z,99315.16
2022-09-15T10:57:57.553Z,99311.88
2022-09-15T11:00:30.275Z,99303.50
2022-09-15T11:03:17.113Z,99309.22
2022-09-15T11:06:00.988Z,99299.81
2022-09-15T11:08:52.491Z,99294.47
2022-09-15T11:11:30.759Z,99288.28
2022-09-15T11:14:18.081Z,99285.22
2022-09-15T11:17:00.218Z,99278.06
2022-09-15T11:19:56.451Z,99283.22
2022-09-15T11:22:32.972Z,99282.22
2022-09-15T11:25:04.986Z,99281.22
2022-09-15T11:27:37.004Z,99276.88
2022-09-15T11:30:09.211Z,99265.38
2022-09-15T11:32:45.136Z,99262.53
2022-09-15T11:35:38.755Z,99271.13
2022-09-15T11:38:22.534Z,99272.38
2022-09-15T11:40:56.505Z,99273.19
2022-09-15T11:43:34.257Z,99275.69
2022-09-15T11:46:08.472Z,99273.19
2022-09-15T11:48:44.914Z,99265.19
2022-09-15T11:51:17.486Z,99263.97
2022-09-15T11:53:51.409Z,99271.53
2022-09-15T11:56:25.923Z,99269.50
2022-09-15T11:59:09.085Z,99273.19
2022-09-15T12:01:44.963Z,99269.13
2022-09-15T12:04:21.178Z,99265.81
2022-09-15T12:06:54.535Z,99252.47
2022-09-15T12:09:24.932Z,99248.16
2022-09-15T12:11:58.295Z,99255.13
2022-09-15T12:14:32.087Z,99254.72
2022-09-15T12:17:01.665Z,99258.38
2022-09-15T12:19:50.040Z,99259.22
2022-09-15T12:22:24.762Z,99264.56
2022-09-15T12:25:01.592Z,99258.19
2022-09-15T12:27:30.845Z,99252.63
2022-09-15T12:30:00.921Z,99245.66
2022-09-15T12:32:30.675Z,99243.19
2022-09-15T12:35:27.193Z,99251.38
2022-09-15T12:37:57.763Z,99246.03
2022-09-15T12:40:34.642Z,99234.97
2022-09-15T12:43:04.712Z,99234.59
2022-09-15T12:45:36.169Z,99238.03
2022-09-15T12:48:08.428Z,99229.00
2022-09-15T12:50:39.509Z,99229.84
2022-09-15T12:53:20.737Z,99238.25
2022-09-15T12:55:52.945Z,99241.31
2022-09-15T12:58:27.476Z,99234.16
2022-09-15T13:01:32.010Z,99222.03
2022-09-15T13:04:50.817Z,99215.66
2022-09-15T13:07:53.181Z,99221.00
2022-09-15T13:10:34.398Z,99220.34
2022-09-15T13:13:30.004Z,99210.31
2022-09-15T13:16:03.736Z,99208.22
2022-09-15T13:18:33.430Z,99207.25
2022-09-15T13:21:10.437Z,99204.16
2022-09-15T13:23:45.023Z,99203.34
2022-09-15T13:26:18.848Z,99204.34
2022-09-15T13:28:51.519Z,99193.91
2022-09-15T13:31:31.194Z,99195.34
2022-09-15T13:38:13.992Z,99190.59
2022-09-15T13:40:58.361Z,99189.38
2022-09-15T13:43:54.414Z,99186.31
2022-09-15T13:46:36.376Z,99177.66
2022-09-15T13:49:32.957Z,99182.00
2022-09-15T13:52:09.219Z,99181.16
2022-09-15T13:54:37.529Z,99165.16
2022-09-15T13:57:06.094Z,99153.63
2022-09-15T13:59:35.819Z,99152.63
2022-09-15T14:02:12.289Z,99151.41
2022-09-15T14:04:40.743Z,99154.28
2022-09-15T14:07:23.728Z,99159.81
2022-09-15T14:09:53.198Z,99154.28
2022-09-15T14:12:21.364Z,99157.34
2022-09-15T14:14:54.808Z,99153.03
2022-09-15T14:17:25.563Z,99153.63
2022-09-15T14:19:55.666Z,99154.66
2022-09-15T14:22:27.560Z,99156.09
2022-09-15T14:24:57.371Z,99154.53
2022-09-15T14:27:28.036Z,99153.63
2022-09-15T14:29:59.815Z,99149.97
2022-09-15T14:32:29.534Z,99147.31
2022-09-15T14:35:05.597Z,99151.19
2022-09-15T14:37:35.086Z,99148.31
2022-09-15T14:40:18.521Z,99136.63
2022-09-15T14:42:46.926Z,99141.34
2022-09-15T14:48:09.998Z,99122.25
2022-09-15T14:50:38.873Z,99128.22
2022-09-15T14:53:11.708Z,99131.91
2022-09-15T14:55:50.832Z,99125.97
2022-09-15T14:58:25.434Z,99122.44
2022-09-15T15:01:01.724Z,99133.72
2022-09-15T15:03:36.176Z,99133.53
2022-09-15T15:06:28.468Z,99139.31
2022-09-15T15:09:03.254Z,99136.00
2022-09-15T15:11:34.008Z,99141.72
2022-09-15T15:14:04.035Z,99145.25
2022-09-15T15:16:33.762Z,99134.38
2022-09-15T15:19:02.298Z,99141.13
2022-09-15T15:21:42.268Z,99128.63
2022-09-15T15:24:17.964Z,99124.91
2022-09-15T15:29:18.641Z,99125.75
2022-09-15T15:31:48.437Z,99133.97
2022-09-15T15:34:25.701Z,99130.25
2022-09-15T15:37:04.192Z,99126.56
2022-09-15T15:39:32.731Z,99131.69
2022-09-15T15:42:03.637Z,99143.81
2022-09-15T15:44:33.581Z,99138.47
2022-09-15T15:47:23.998Z,99148.94
2022-09-15T15:50:12.283Z,99149.53
2022-09-15T15:52:42.606Z,99155.06
2022-09-15T15:55:14.820Z,99154.06
2022-09-15T15:57:43.495Z,99161.44
2022-09-15T16:00:24.117Z,99153.03
2022-09-15T16:02:54.482Z,99156.88
2022-09-15T16:05:26.778Z,99153.81
2022-09-15T16:07:57.824Z,99152.59
2022-09-15T16:10:30.999Z,99143.78
2022-09-15T16:12:59.508Z,99149.13
2022-09-15T16:15:28.470Z,99147.47
2022-09-15T16:17:58.317Z,99156.09
2022-09-15T16:20:28.143Z,99156.94
2022-09-15T16:22:56.457Z,99157.34
2022-09-15T16:25:33.345Z,99161.03
2022-09-15T16:28:01.881Z,99161.88
2022-09-15T16:30:30.543Z,99162.28
2022-09-15T16:33:00.653Z,99165.75
2022-09-15T16:35:36.470Z,99164.75
2022-09-15T16:38:04.937Z,99162.28
2022-09-15T16:40:33.489Z,99165.13
2022-09-15T16:43:02.002Z,99170.47
2022-09-15T16:45:38.197Z,99170.47
2022-09-15T16:48:11.192Z,99168.59
2022-09-15T16:50:50.353Z,99162.84
2022-09-15T16:53:26.838Z,99155.72
2022-09-15T16:55:56.528Z,99149.19
2022-09-15T16:58:24.983Z,99152.84
2022-09-15T17:00:53.840Z,99149.59
2022-09-15T17:03:26.479Z,99148.75
2022-09-15T17:05:57.515Z,99151.22
2022-09-15T17:08:29.567Z,99154.09
2022-09-15T17:10:58.672Z,99157.38
2022-09-15T17:13:30.328Z,99159.41
2022-09-15T17:15:59.745Z,99168.47
2022-09-15T17:18:29.981Z,99168.88
2022-09-15T17:20:58.784Z,99178.53
2022-09-15T17:23:28.946Z,99175.63
2022-09-15T17:25:59.343Z,99168.25
2022-09-15T17:28:29.269Z,99172.56
2022-09-15T17:30:59.843Z,99177.91
2022-09-15T17:33:31.498Z,99183.25
2022-09-15T17:36:00.451Z,99187.78
2022-09-15T17:38:28.823Z,99189.38
2022-09-15T17:40:57.190Z,99183.25
2022-09-15T17:43:26.897Z,99192.50
2022-09-15T17:45:56.052Z,99189.00
2022-09-15T17:48:25.501Z,99186.94
2022-09-15T17:50:54.960Z,99194.31
2022-09-15T17:53:24.231Z,99186.31
2022-09-15T17:55:52.693Z,99188.19
2022-09-15T17:58:21.430Z,99184.88
2022-09-15T18:00:50.947Z,99180.97
2022-09-15T18:03:24.083Z,99177.50
2022-09-15T18:05:55.119Z,99181.63
2022-09-15T18:08:23.868Z,99173.59
2022-09-15T18:10:52.696Z,99176.25
2022-09-15T18:13:23.677Z,99182.00
2022-09-15T18:15:52.054Z,99180.31
2022-09-15T18:18:23.083Z,99186.31
2022-09-15T18:20:53.215Z,99188.13
2022-09-15T18:23:27.455Z,99182.59
2022-09-15T18:25:55.800Z,99176.66
2022-09-15T18:28:24.117Z,99176.66
2022-09-15T18:30:53.118Z,99174.19
2022-09-15T18:33:23.463Z,99177.47
2022-09-15T18:35:54.150Z,99186.31
2022-09-15T18:38:24.490Z,99186.50
2022-09-15T18:40:55.428Z,99175.81
2022-09-15T18:43:26.561Z,99180.97
2022-09-15T18:45:58.780Z,99180.13
2022-09-15T18:48:27.402Z,99183.25
2022-09-15T18:50:55.519Z,99187.13
2022-09-15T18:53:25.754Z,99191.00
2022-09-15T18:55:54.151Z,99188.56
2022-09-15T18:58:22.939Z,99190.38
2022-09-15T19:00:52.029Z,99186.09
2022-09-15T19:03:20.538Z,99181.94
2022-09-15T19:05:48.903Z,99188.13
2022-09-15T19:08:17.210Z,99191.44
2022-09-15T19:10:48.005Z,99190.59
2022-09-15T19:13:16.624Z,99192.41
2022-09-15T19:15:44.995Z,99182.78
2022-09-15T19:18:13.469Z,99183.81
2022-09-15T19:20:41.933Z,99179.28
2022-09-15T19:23:11.016Z,99178.47
2022-09-15T19:25:41.860Z,99172.09
2022-09-15T19:28:11.604Z,99165.94
2022-09-15T19:30:40.228Z,99171.28
2022-09-15T19:33:08.633Z,99167.16
2022-09-15T19:35:36.844Z,99156.50
2022-09-15T19:38:05.323Z,99157.31
2022-09-15T19:40:33.637Z,99157.31
2022-09-15T19:43:01.936Z,99159.16
2022-09-15T19:45:31.809Z,99161.81
2022-09-15T19:47:59.932Z,99160.19
2022-09-15T19:50:28.533Z,99154.66
2022-09-15T19:52:59.590Z,99156.50
2022-09-15T19:55:29.039Z,99158.13
2022-09-15T19:57:57.368Z,99156.50
2022-09-15T20:00:25.786Z,99156.69
2022-09-15T20:02:55.522Z,99158.34
2022-09-15T20:05:32.654Z,99153.81
2022-09-15T20:08:02.274Z,99150.34
2022-09-15T20:10:30.386Z,99149.50
2022-09-15T20:12:58.695Z,99141.50
2022-09-15T20:15:26.896Z,99140.47
2022-09-15T20:17:57.075Z,99145.63
2022-09-15T20:20:25.288Z,99141.31
2022-09-15T20:22:53.618Z,99151.78
2022-09-15T20:25:24.108Z,99139.44
2022-09-15T20:27:53.728Z,99136.19
2022-09-15T20:30:22.439Z,99133.31
2022-09-15T20:35:37.735Z,99128.16
2022-09-15T20:38:06.543Z,99133.50
2022-09-15T20:40:35.008Z,99123.66
2022-09-15T20:43:03.380Z,99128.16
2022-09-15T20:45:35.172Z,99136.38
2022-09-15T20:48:05.748Z,99138.84
2022-09-15T20:50:34.165Z,99132.66
2022-09-15T20:53:03.764Z,99132.47
2022-09-15T20:55:32.003Z,99131.66
2022-09-15T20:58:00.661Z,99127.34
2022-09-15T21:00:33.651Z,99133.50
2022-09-15T21:03:02.338Z,99138.84
2022-09-15T21:05:30.604Z,99133.50
2022-09-15T21:07:59.391Z,99139.69
2022-09-15T21:10:30.464Z,99133.50
2022-09-15T21:12:58.865Z,99132.66
2022-09-15T21:15:28.332Z,99118.34
2022-09-15T21:17:56.696Z,99122.84
2022-09-15T21:20:24.955Z,99132.47
2022-09-15T21:22:55.151Z,99126.34
2022-09-15T21:25:23.803Z,99124.47
2022-09-15T21:27:53.494Z,99115.88
2022-09-15T21:30:22.144Z,99113.19
2022-09-15T21:32:50.656Z,99115.88
2022-09-15T21:35:19.035Z,99122.00
2022-09-15T21:37:47.345Z,99118.72
2022-09-15T21:40:16.095Z,99122.19
2022-09-15T21:42:44.619Z,99118.72
2022-09-15T21:45:14.405Z,99115.22
2022-09-15T21:47:42.648Z,99115.03
2022-09-15T21:50:11.530Z,99101.50
2022-09-15T21:52:39.861Z,99102.53
2022-09-15T21:55:08.682Z,99099.03
2022-09-15T21:57:36.942Z,99094.50
2022-09-15T22:00:06.651Z,99094.50
2022-09-15T22:02:36.936Z,99095.31
2022-09-15T22:05:05.619Z,99091.03
2022-09-15T22:07:33.900Z,99092.84
2022-09-15T22:10:02.399Z,99093.88
2022-09-15T22:12:30.648Z,99098.19
2022-09-15T22:14:59.056Z,99094.91
2022-09-15T22:17:27.421Z,99095.72
2022-09-15T22:19:57.089Z,99090.38
2022-09-15T22:22:25.703Z,99091.22
2022-09-15T22:24:53.922Z,99081.38
2022-09-15T22:27:22.335Z,99084.03
2022-09-15T22:29:50.477Z,99076.84
2022-09-15T22:32:18.841Z,99079.50
2022-09-15T22:34:47.165Z,99076.84
2022-09-15T22:37:16.919Z,99075.22
2022-09-15T22:39:58.577Z,99072.53
2022-09-15T22:42:28.155Z,99078.91
2022-09-15T22:44:56.295Z,99081.38
2022-09-15T22:47:24.614Z,99081.38
2022-09-15T22:49:53.196Z,99087.72
2022-09-15T22:52:22.802Z,99088.53
2022-09-15T22:54:51.149Z,99086.91
2022-09-15T22:57:19.419Z,99086.91
2022-09-15T22:59:47.771Z,99093.25
2022-09-15T23:02:16.174Z,99084.25
2022-09-15T23:04:44.535Z,99086.91
2022-09-15T23:07:13.210Z,99090.38
2022-09-15T23:09:43.072Z,99087.09
2022-09-15T23:12:11.521Z,99087.91
2022-09-15T23:14:39.879Z,99094.28
2022-09-15T23:17:08.124Z,99095.09
2022-09-15T23:19:36.848Z,99088.94
2022-09-15T23:22:05.071Z,99089.97
2022-09-15T23:24:33.581Z,99084.44
2022-09-15T23:27:04.483Z,99087.91
2022-09-15T23:29:33.183Z,99088.94
2022-09-15T23:32:01.425Z,99088.94
2022-09-15T23:34:29.770Z,99084.63
2022-09-15T23:36:58.314Z,99092.00
2022-09-15T23:39:26.749Z,99083.00
2022-09-15T23:41:55.190Z,99098.81
2022-09-15T23:46:54.015Z,99089.97
2022-09-15T23:49:22.313Z,99096.13
2022-09-15T23:51:50.681Z,99089.78
2022-09-15T23:54:19.187Z,99083.00
2022-09-15T23:56:47.447Z,99088.53
2022-09-15T23:59:16.159Z,99093.25
